createdAt,value
2022-11-10T00:12:36.988Z,2.1
2022-11-10T00:18:46.055Z,2.2
2022-11-10T00:24:51.187Z,2
2022-11-10T00:30:52.808Z,2.5
2022-11-10T00:37:05.488Z,2.6
2022-11-10T00:43:30.471Z,3
2022-11-10T00:49:51.123Z,3
2022-11-10T00:56:04.711Z,2.9
2022-11-10T01:02:25.185Z,2.7
2022-11-10T02:48:22.473Z,2.6
2022-11-10T03:01:42.243Z,2.6
2022-11-10T03:08:19.169Z,3
2022-11-10T03:32:49.776Z,2.8
2022-11-10T04:02:56.215Z,2.9
2022-11-10T04:09:04.075Z,2.8
2022-11-10T04:21:12.123Z,2.8
2022-11-10T04:27:44.620Z,2.3
2022-11-10T04:34:30.913Z,2.5
2022-11-10T05:05:15.809Z,2.7
2022-11-10T05:29:46.185Z,4.5
2022-11-10T05:47:56.410Z,3.4
2022-11-10T05:54:09.732Z,3.3
2022-11-10T08:06:44.854Z,3.3
2022-11-10T08:12:39.480Z,3.8
2022-11-10T08:24:46.167Z,3.4
2022-11-10T08:30:37.449Z,3.2
2022-11-10T08:36:49.505Z,3.3
2022-11-10T08:42:41.513Z,3.3
2022-11-10T08:48:43.304Z,3.5
2022-11-10T09:06:21.332Z,3.4
2022-11-10T09:12:20.829Z,2.9
2022-11-10T09:18:15.474Z,3
2022-11-10T09:24:19.877Z,2.9
2022-11-10T09:30:17.561Z,2.6
2022-11-10T09:36:08.915Z,2.4
2022-11-10T09:41:59.780Z,2.5
2022-11-10T09:48:24.290Z,2.8
2022-11-10T09:54:19.873Z,2.6
2022-11-10T10:00:15.147Z,3
2022-11-10T10:06:10.963Z,2.9
2022-11-10T10:12:06.983Z,2.9
2022-11-10T10:18:17.361Z,2.7
2022-11-10T10:24:30.436Z,2.9
2022-11-10T10:30:35.277Z,2.6
2022-11-10T10:36:31.037Z,2.7
2022-11-10T10:42:31.631Z,2.3
2022-11-10T10:48:29.442Z,2.2
2022-11-10T10:54:37.797Z,2.3
2022-11-10T11:01:37.363Z,2.4
2022-11-10T11:07:26.125Z,2.1
2022-11-10T11:13:16.922Z,2
2022-11-10T11:19:10.176Z,2.3
2022-11-10T11:25:02.288Z,2.2
2022-11-10T11:30:55.972Z,2.3
2022-11-10T11:36:47.470Z,2.4
2022-11-10T11:42:39.048Z,1.9
2022-11-10T11:48:30.568Z,2.1
2022-11-10T11:54:22.468Z,2
2022-11-10T12:00:13.944Z,1.8
2022-11-10T12:06:05.176Z,2.2
2022-11-10T12:11:54.350Z,1.8
2022-11-10T12:17:44.018Z,2
2022-11-10T12:23:35.495Z,3.1
2022-11-10T12:29:26.565Z,2.3
2022-11-10T12:35:17.116Z,2.2
2022-11-10T12:41:09.545Z,1.9
2022-11-10T12:47:01.123Z,2.4
2022-11-10T12:52:51.661Z,2
2022-11-10T12:58:43.859Z,2.2
2022-11-10T13:04:35.235Z,2.2
2022-11-10T13:10:26.769Z,1.8
2022-11-10T13:16:17.723Z,2
2022-11-10T13:22:08.972Z,2.5
2022-11-10T13:28:00.309Z,2.4
2022-11-10T13:33:52.538Z,2.3
2022-11-10T13:39:44.191Z,2.1
2022-11-10T13:45:36.485Z,2.5
2022-11-10T13:51:26.910Z,2.2
2022-11-10T13:57:17.595Z,2.3
2022-11-10T14:03:10.152Z,2
2022-11-10T14:09:02.368Z,2.2
2022-11-10T14:14:55.070Z,2
2022-11-10T14:20:45.714Z,2
2022-11-10T14:26:36.953Z,2.6
2022-11-10T14:32:28.026Z,2.4
2022-11-10T14:38:29.407Z,2.2
2022-11-10T14:44:21.853Z,2
2022-11-10T14:50:11.795Z,2.3
2022-11-10T14:56:02.179Z,2.6
2022-11-10T15:01:52.752Z,2.6
2022-11-10T15:07:44.260Z,2.2
2022-11-10T15:13:35.396Z,2.7
2022-11-10T15:19:25.931Z,2.5
2022-11-10T15:25:17.091Z,2.8
2022-11-10T15:31:07.953Z,2.9
2022-11-10T15:36:58.318Z,3
2022-11-10T15:42:49.959Z,3.3
2022-11-10T15:48:40.648Z,3
2022-11-10T15:54:33.252Z,3.6
2022-11-10T16:00:25.751Z,4.4
2022-11-10T16:06:15.941Z,4.7
2022-11-10T16:12:06.006Z,3.4
2022-11-10T16:17:55.240Z,9.4
2022-11-10T16:23:45.218Z,3.8
2022-11-10T16:29:36.170Z,4.2
2022-11-10T16:35:27.508Z,3.6
2022-11-10T16:41:19.033Z,3.5
2022-11-10T16:47:11.456Z,3.6
2022-11-10T16:53:02.808Z,3.7
2022-11-10T16:58:55.449Z,3.4
2022-11-10T17:04:45.657Z,3.8
2022-11-10T17:10:41.760Z,4.6
2022-11-10T17:16:31.883Z,3.8
2022-11-10T17:22:23.428Z,17
2022-11-10T17:28:13.306Z,23.7
2022-11-10T17:37:36.460Z,6.8
2022-11-10T17:43:24.949Z,4.7
2022-11-10T17:49:16.552Z,5.2
2022-11-10T17:55:22.224Z,4.8
2022-11-10T18:01:12.587Z,5.4
2022-11-10T18:07:03.671Z,5.5
2022-11-10T18:12:53.432Z,5.5
2022-11-10T18:18:48.016Z,8.4
2022-11-10T18:24:38.324Z,9.3
2022-11-10T18:30:37.619Z,8.7
2022-11-10T18:36:28.475Z,9.2
2022-11-10T18:42:18.622Z,8.5
2022-11-10T18:48:09.754Z,7.3
2022-11-10T18:53:59.908Z,8.6
2022-11-10T18:59:50.198Z,11
2022-11-10T19:05:41.442Z,8.1
2022-11-10T19:11:33.564Z,11
2022-11-10T19:17:24.325Z,9
2022-11-10T19:23:14.361Z,9.1
2022-11-10T19:29:05.073Z,9.1
2022-11-10T19:34:55.641Z,9.2
2022-11-10T19:40:46.722Z,9.2
2022-11-10T19:46:35.394Z,9.2
2022-11-10T19:52:26.675Z,9.5
2022-11-10T19:58:17.111Z,9.5
2022-11-10T20:04:08.146Z,9.8
2022-11-10T20:09:59.385Z,11
2022-11-10T20:15:51.026Z,10.7
2022-11-10T20:21:42.000Z,10.6
2022-11-10T20:27:33.536Z,10.3
2022-11-10T20:33:26.126Z,10.6
2022-11-10T20:39:17.211Z,11.9
2022-11-10T20:45:07.647Z,11.7
2022-11-10T20:50:58.428Z,11.8
2022-11-10T20:56:50.277Z,13
2022-11-10T21:02:41.607Z,13.4
2022-11-10T21:08:32.251Z,13.1
2022-11-10T21:14:22.581Z,15.6
2022-11-10T21:20:13.512Z,13
2022-11-10T21:26:04.060Z,13.6
2022-11-10T21:31:54.446Z,13.1
2022-11-10T21:37:45.691Z,12.9
2022-11-10T21:43:35.614Z,12.9
2022-11-10T21:49:25.928Z,12.2
2022-11-10T21:55:16.604Z,13.4
2022-11-10T22:01:06.950Z,13.3
2022-11-10T22:06:58.557Z,13.2
2022-11-10T22:12:48.932Z,12.9
2022-11-10T22:18:38.070Z,13.4
2022-11-10T22:24:28.257Z,12.2
2022-11-10T22:30:18.606Z,11.9
2022-11-10T22:36:10.229Z,11.9
2022-11-10T22:42:01.555Z,11.7
2022-11-10T22:47:52.290Z,11.9
2022-11-10T22:53:43.348Z,11.5
2022-11-10T22:59:33.749Z,11.3
2022-11-10T23:05:24.784Z,12.3
2022-11-10T23:11:13.596Z,11.5
2022-11-10T23:29:38.217Z,13
2022-11-10T23:42:10.484Z,11.4
